createdAt,value
2019-03-31T00:02:02.315Z,18.27
2019-03-31T00:07:04.806Z,14.63
2019-03-31T00:12:07.273Z,19.07
2019-03-31T00:17:09.743Z,14.40
2019-03-31T00:22:12.209Z,16.17
2019-03-31T00:27:14.681Z,17.33
2019-03-31T00:32:17.149Z,14.60
2019-03-31T00:37:19.623Z,17.93
2019-03-31T00:42:22.090Z,12.10
2019-03-31T00:47:24.565Z,17.00
2019-03-31T00:52:27.041Z,13.70
2019-03-31T00:57:29.557Z,20.87
2019-03-31T01:02:32.036Z,20.17
2019-03-31T01:07:34.531Z,16.23
2019-03-31T01:12:36.994Z,19.07
2019-03-31T01:17:39.470Z,19.00
2019-03-31T01:22:41.934Z,15.83
2019-03-31T01:27:44.406Z,14.33
2019-03-31T01:32:46.878Z,14.73
2019-03-31T01:37:49.398Z,25.83
2019-03-31T01:42:51.874Z,16.57
2019-03-31T01:47:54.685Z,16.53
2019-03-31T01:52:57.173Z,17.10
2019-03-31T01:57:59.650Z,13.90
2019-03-31T02:03:02.129Z,16.10
2019-03-31T02:08:04.618Z,15.17
2019-03-31T02:13:07.090Z,17.07
2019-03-31T02:18:09.564Z,17.17
2019-03-31T02:23:12.024Z,14.17
2019-03-31T02:28:14.460Z,14.33
2019-03-31T02:33:16.929Z,13.40
2019-03-31T02:38:19.372Z,17.50
2019-03-31T02:43:21.822Z,13.87
2019-03-31T02:48:24.283Z,14.93
2019-03-31T02:53:26.741Z,13.23
2019-03-31T02:58:29.213Z,15.93
2019-03-31T03:03:31.649Z,14.70
2019-03-31T03:08:34.143Z,11.07
2019-03-31T03:13:40.305Z,11.73
2019-03-31T03:18:42.763Z,11.57
2019-03-31T03:23:45.253Z,12.73
2019-03-31T03:28:47.712Z,11.97
2019-03-31T03:33:50.182Z,13.53
2019-03-31T03:38:52.645Z,16.33
2019-03-31T03:43:59.582Z,12.37
2019-03-31T03:48:57.650Z,13.93
2019-03-31T03:54:00.023Z,12.93
2019-03-31T03:59:02.479Z,16.03
2019-03-31T04:04:05.092Z,11.83
2019-03-31T04:09:07.397Z,12.43
2019-03-31T04:14:09.857Z,13.13
2019-03-31T04:19:12.410Z,12.90
2019-03-31T04:24:14.935Z,10.97
2019-03-31T04:29:17.403Z,41.00
2019-03-31T04:34:19.865Z,15.30
2019-03-31T04:39:22.325Z,13.57
2019-03-31T04:44:24.784Z,11.93
2019-03-31T04:49:27.237Z,10.63
2019-03-31T04:54:29.730Z,15.97
2019-03-31T04:59:32.306Z,13.63
2019-03-31T05:04:34.771Z,14.80
2019-03-31T05:09:37.235Z,14.17
2019-03-31T05:14:39.694Z,15.20
2019-03-31T05:19:42.159Z,13.77
2019-03-31T05:24:44.723Z,13.10
2019-03-31T05:29:47.174Z,16.00
2019-03-31T05:34:49.689Z,17.97
2019-03-31T05:39:52.155Z,15.67
2019-03-31T05:44:54.631Z,12.77
2019-03-31T05:49:57.089Z,12.83
2019-03-31T05:54:59.559Z,17.73
2019-03-31T06:00:02.025Z,11.50
2019-03-31T06:05:04.485Z,13.67
2019-03-31T06:10:06.941Z,13.73
2019-03-31T06:15:09.417Z,15.63
2019-03-31T06:20:11.894Z,10.47
2019-03-31T06:25:14.380Z,11.60
2019-03-31T06:30:16.824Z,9.37
2019-03-31T06:35:19.301Z,12.67
2019-03-31T06:40:24.474Z,11.80
2019-03-31T06:45:26.999Z,18.40
2019-03-31T06:50:29.506Z,17.63
2019-03-31T06:55:31.979Z,15.33
2019-03-31T07:00:34.478Z,12.37
2019-03-31T07:05:36.957Z,14.53
2019-03-31T07:10:39.429Z,15.80
2019-03-31T07:15:41.913Z,10.87
2019-03-31T07:20:44.392Z,14.97
2019-03-31T07:25:46.854Z,18.53
2019-03-31T07:30:49.323Z,13.10
2019-03-31T07:35:51.795Z,12.00
2019-03-31T07:40:54.629Z,13.93
2019-03-31T07:45:56.749Z,16.27
2019-03-31T07:50:59.207Z,9.43
2019-03-31T07:56:01.844Z,10.67
2019-03-31T08:01:04.305Z,9.53
2019-03-31T08:06:06.784Z,10.60
2019-03-31T08:11:09.270Z,13.00
2019-03-31T08:16:11.777Z,16.70
2019-03-31T08:21:14.239Z,10.95
2019-03-31T08:26:16.735Z,12.95
2019-03-31T08:31:19.278Z,11.75
2019-03-31T08:36:21.756Z,14.50
2019-03-31T08:41:24.233Z,12.73
2019-03-31T08:46:26.734Z,17.27
2019-03-31T08:51:29.233Z,13.05
2019-03-31T08:56:31.746Z,12.68
2019-03-31T09:01:34.205Z,12.33
2019-03-31T09:06:36.713Z,12.57
2019-03-31T09:11:39.203Z,13.55
2019-03-31T09:16:42.883Z,13.48
2019-03-31T09:21:45.278Z,20.00
2019-03-31T09:26:47.765Z,16.00
2019-03-31T09:31:52.838Z,16.30
2019-03-31T09:36:55.326Z,16.77
2019-03-31T09:41:57.828Z,13.88
2019-03-31T09:47:00.307Z,13.57
2019-03-31T09:52:02.784Z,13.90
2019-03-31T09:57:05.252Z,12.48
2019-03-31T10:02:07.717Z,14.05
2019-03-31T10:07:10.191Z,12.15
2019-03-31T10:12:12.674Z,12.95
2019-03-31T10:17:15.136Z,13.50
2019-03-31T10:22:17.606Z,13.43
2019-03-31T10:27:20.073Z,11.93
2019-03-31T10:32:22.546Z,16.48
2019-03-31T10:37:25.022Z,12.40
2019-03-31T10:42:27.499Z,12.98
2019-03-31T10:47:29.952Z,11.80
2019-03-31T10:52:32.426Z,12.93
2019-03-31T10:57:34.891Z,8.50
2019-03-31T11:02:37.354Z,7.20
2019-03-31T11:07:39.936Z,6.78
2019-03-31T11:12:42.397Z,5.75
2019-03-31T11:17:44.895Z,10.00
2019-03-31T11:22:50.358Z,8.57
2019-03-31T11:27:52.816Z,11.82
2019-03-31T11:32:55.281Z,8.93
2019-03-31T11:37:57.746Z,9.85
2019-03-31T11:43:00.224Z,8.93
2019-03-31T11:48:02.700Z,10.17
2019-03-31T11:53:05.199Z,14.60
2019-03-31T11:58:07.800Z,12.23
2019-03-31T12:03:10.360Z,11.10
2019-03-31T12:08:12.807Z,15.47
2019-03-31T12:13:15.280Z,12.50
2019-03-31T12:18:17.797Z,15.43
2019-03-31T12:23:20.280Z,14.77
2019-03-31T12:28:22.775Z,13.23
2019-03-31T12:33:25.255Z,10.60
2019-03-31T12:38:27.716Z,6.00
2019-03-31T12:43:30.277Z,6.77
2019-03-31T12:48:32.759Z,5.70
2019-03-31T12:53:35.333Z,6.27
2019-03-31T12:58:37.811Z,6.87
2019-03-31T13:03:40.302Z,9.23
2019-03-31T13:08:42.800Z,6.77
2019-03-31T13:13:45.243Z,6.67
2019-03-31T13:18:47.712Z,7.43
2019-03-31T13:23:50.226Z,6.93
2019-03-31T13:28:52.722Z,8.37
2019-03-31T13:33:55.222Z,3.97
2019-03-31T13:38:57.689Z,5.43
2019-03-31T13:44:00.166Z,3.40
2019-03-31T13:49:02.644Z,5.80
2019-03-31T13:54:05.098Z,4.80
2019-03-31T13:59:09.225Z,4.70
2019-03-31T14:04:10.095Z,5.33
2019-03-31T14:09:12.592Z,3.43
2019-03-31T14:14:15.150Z,3.10
2019-03-31T14:19:17.537Z,3.77
2019-03-31T14:24:19.998Z,4.63
2019-03-31T14:29:22.479Z,4.43
2019-03-31T14:34:24.989Z,3.73
2019-03-31T14:39:27.471Z,4.00
2019-03-31T14:44:29.929Z,3.77
2019-03-31T14:49:32.403Z,3.30
2019-03-31T14:54:34.910Z,3.17
2019-03-31T14:59:37.403Z,4.00
2019-03-31T15:04:39.871Z,4.13
2019-03-31T15:09:42.335Z,3.30
2019-03-31T15:14:44.814Z,4.30
2019-03-31T15:19:47.283Z,5.93
2019-03-31T15:24:49.761Z,6.07
2019-03-31T15:29:52.206Z,3.80
2019-03-31T15:34:54.682Z,3.90
2019-03-31T15:39:58.267Z,3.47
2019-03-31T15:44:59.729Z,3.67
2019-03-31T15:50:02.206Z,4.73
2019-03-31T15:55:04.664Z,3.20
2019-03-31T16:00:07.346Z,4.23
2019-03-31T16:05:12.557Z,5.80
2019-03-31T16:10:12.074Z,6.77
2019-03-31T16:15:14.551Z,4.70
2019-03-31T16:20:17.045Z,6.00
2019-03-31T16:25:22.411Z,4.07
2019-03-31T16:30:24.884Z,4.20
2019-03-31T16:35:27.387Z,6.03
2019-03-31T16:40:29.857Z,4.20
2019-03-31T16:45:32.346Z,4.47
2019-03-31T16:50:34.821Z,5.73
2019-03-31T16:55:37.309Z,4.20
2019-03-31T17:00:39.779Z,4.97
2019-03-31T17:05:42.248Z,6.00
2019-03-31T17:10:44.748Z,5.37
2019-03-31T17:15:47.201Z,7.23
2019-03-31T17:20:49.674Z,11.00
2019-03-31T17:25:52.152Z,8.90
2019-03-31T17:30:54.632Z,6.63
2019-03-31T17:35:57.120Z,5.57
2019-03-31T17:40:59.613Z,4.50
2019-03-31T17:46:02.070Z,4.47
2019-03-31T17:51:04.532Z,4.03
2019-03-31T17:56:07.008Z,5.70
2019-03-31T18:01:09.509Z,7.50
2019-03-31T18:06:11.999Z,6.80
2019-03-31T18:11:14.506Z,8.07
2019-03-31T18:16:16.973Z,5.77
2019-03-31T18:21:19.470Z,5.47
2019-03-31T18:26:21.954Z,8.00
2019-03-31T18:31:24.445Z,5.37
2019-03-31T18:36:36.397Z,11.23
2019-03-31T18:41:29.457Z,20.73
2019-03-31T18:46:31.958Z,19.47
2019-03-31T18:51:34.442Z,19.93
2019-03-31T18:56:42.930Z,22.53
2019-03-31T19:01:45.428Z,25.57
2019-03-31T19:06:56.749Z,32.97
2019-03-31T19:12:17.419Z,34.70
2019-03-31T19:17:19.900Z,31.50
2019-03-31T19:22:34.357Z,30.97
2019-03-31T19:27:49.066Z,31.47
2019-03-31T19:32:51.546Z,30.90
2019-03-31T19:37:54.040Z,36.37
2019-03-31T19:43:02.433Z,41.03
2019-03-31T19:48:07.784Z,42.00
2019-03-31T19:53:26.499Z,38.93
2019-03-31T19:58:29.026Z,35.10
2019-03-31T20:03:31.485Z,38.10
2019-03-31T20:08:33.964Z,40.50
2019-03-31T20:13:45.479Z,39.33
2019-03-31T20:18:57.012Z,38.30
2019-03-31T20:23:59.493Z,36.30
2019-03-31T20:29:07.910Z,38.00
2019-03-31T20:34:16.395Z,35.13
2019-03-31T20:39:37.375Z,34.50
2019-03-31T20:44:39.898Z,32.73
2019-03-31T20:49:42.390Z,32.70
2019-03-31T20:54:44.873Z,38.60
2019-03-31T20:59:47.484Z,37.57
2019-03-31T21:04:49.835Z,36.33
2019-03-31T21:09:52.329Z,38.80
2019-03-31T21:14:54.804Z,32.93
2019-03-31T21:19:58.390Z,37.30
2019-03-31T21:25:00.977Z,37.87
2019-03-31T21:30:03.454Z,43.10
2019-03-31T21:35:05.938Z,38.47
2019-03-31T21:40:08.424Z,39.83
2019-03-31T21:45:10.901Z,42.73
2019-03-31T21:50:13.394Z,41.10
2019-03-31T21:55:15.893Z,39.70
2019-03-31T22:00:18.374Z,41.43
2019-03-31T22:05:20.883Z,43.37
2019-03-31T22:10:23.394Z,43.50
2019-03-31T22:15:25.878Z,44.93
2019-03-31T22:20:28.375Z,43.57
2019-03-31T22:25:30.840Z,42.57
2019-03-31T22:30:33.352Z,40.67
2019-03-31T22:35:35.822Z,42.73
2019-03-31T22:40:38.297Z,42.17
2019-03-31T22:45:40.770Z,46.87
2019-03-31T22:50:43.238Z,46.13
2019-03-31T22:55:45.697Z,43.97
2019-03-31T23:00:48.162Z,42.07
2019-03-31T23:05:50.634Z,44.87
2019-03-31T23:10:53.132Z,45.97
2019-03-31T23:15:55.591Z,46.00
2019-03-31T23:20:58.079Z,43.03
2019-03-31T23:26:00.576Z,42.27
2019-03-31T23:31:03.816Z,41.13
2019-03-31T23:36:05.528Z,41.93
2019-03-31T23:41:07.982Z,40.10
2019-03-31T23:46:10.450Z,43.83
2019-03-31T23:51:12.921Z,44.30
2019-03-31T23:56:15.399Z,44.77
